Flight Track Log - Related Links

Times and Time Zones

All times are in EDT time to prevent confusion due to time zone crossing. See the VH-SFR flight status page for this flight to view local times or setup timezone preferences in your user account.

Time Position Orientation Groundspeed Altitude Reporting Facility
EDT Latitude Longitude Course Direction KTS MPH feet Rate Location/Type
Wed 12:19:49 AM -33.9244 150.9884 North 5,000  Level Aus ATC (Calculated)
Wed 12:21:34 AM -33.9029 150.9923 315° West 84 97 1,500 -1,650 Descending Aus ATC (RADAR)
Wed 12:21:49 AM -33.8989 150.9874 315° West 80 92 1,700 692 Climbing Aus ATC (RADAR)
Wed 12:22:26 AM -33.8891 150.9754 314° West 76 87 2,100 695 Climbing Aus ATC (RADAR)
Wed 12:23:24 AM -33.8751 150.9595 317° Northwest 70 81 2,800 568 Climbing Aus ATC (RADAR)
Wed 12:24:01 AM -33.8634 150.9507 328° Northwest 82 94 3,000 65 Climbing Aus ATC (RADAR)
Wed 12:24:56 AM -33.8446 150.9351 326° Northwest 86 99 2,900 343 Descending Aus ATC (RADAR)
Wed 12:26:21 AM -33.8196 150.9182 331° Northwest 72 83 3,800 600 Climbing Aus ATC (RADAR)
Wed 12:26:36 AM -33.8156 150.9156 332° Northwest 67 77 3,900 367 Climbing Aus ATC (RADAR)
Wed 12:27:10 AM -33.8043 150.9087 333° Northwest 78 90 4,100 67 Climbing Aus ATC (RADAR)
Wed 12:28:05 AM -33.7839 150.8932 328° Northwest 92 106 4,000 -64 Descending Aus ATC (RADAR)
Wed 12:28:44 AM -33.7704 150.8822 326° Northwest 92 106 4,000 207 Level Aus ATC (RADAR)
Wed 12:29:32 AM -33.7556 150.8708 327° Northwest 83 96 4,300 387 Climbing Aus ATC (RADAR)
Wed 12:30:17 AM -33.7469 150.8649 331° Northwest 71 82 4,600 211 Climbing Aus ATC (RADAR)
Wed 12:33:20 AM -33.6787 150.8155 329° Northwest 79 91 5,100 64 Climbing Aus ATC (RADAR)
Wed 12:34:58 AM -33.6409 150.7968 338° Northwest 96 110 4,900 -90 Descending Aus ATC (RADAR)
Wed 12:35:33 AM -33.6263 150.7922 345° North 93 107 4,900 -63 Level Aus ATC (RADAR)
Wed 12:36:33 AM -33.6019 150.7856 347° North 91 105 4,800  Descending Aus ATC (RADAR)
Wed 12:37:05 AM -33.5898 150.7956 35° Northeast 99 114 4,900 255 Climbing Aus ATC (RADAR)
Wed 12:37:20 AM -33.5844 150.8000 34° Northeast 99 114 5,000  Climbing Aus ATC (RADAR)
Wed 12:37:55 AM -33.5695 150.8106 31° Northeast 105 121 4,900 -67 Descending Aus ATC (RADAR)
Wed 12:38:49 AM -33.5429 150.8249 24° Northeast 117 135 4,900  Level Aus ATC (RADAR)
Wed 12:39:25 AM -33.5264 150.8331 23° Northeast 111 128 4,900  Level Aus ATC (RADAR)
Wed 12:40:19 AM -33.4990 150.8469 23° Northeast 117 135 4,900  Level Aus ATC (RADAR)
Wed 12:41:39 AM -33.4595 150.8644 20° North 112 129 4,900  Level Aus ATC (RADAR)
Wed 12:42:14 AM -33.4432 150.8753 29° Northeast 115 132 4,900  Level Aus ATC (RADAR)
Wed 12:42:29 AM -33.4360 150.8810 33° Northeast 120 138 4,900  Level Aus ATC (RADAR)
Wed 12:43:04 AM -33.4207 150.8963 40° Northeast 124 143 4,900  Level Aus ATC (RADAR)
Wed 12:43:57 AM -33.3982 150.9189 40° Northeast 119 137 4,900  Level Aus ATC (RADAR)
Wed 12:44:32 AM -33.3839 150.9336 41° Northeast 115 132 4,900  Level Aus ATC (RADAR)
Wed 12:45:24 AM -33.3612 150.9516 34° Northeast 111 128 4,900  Level Aus ATC (RADAR)
Wed 12:45:42 AM -33.3536 150.9576 33° Northeast 111 128 4,900  Level Aus ATC (RADAR)
Wed 12:48:57 AM -33.2819 151.0126 360° North 5,000 26 Climbing Aus ATC (Calculated)
Wed 12:49:36 AM -33.2819 151.0126 32° Northeast 5,000  Level Aus ATC (Calculated)
Wed 12:50:00 AM -33.2626 151.0271 32° Northeast  Level FlightAware Approximate
Wed 12:51:00 AM -33.2562 151.0319 32° Northeast  Level FlightAware Approximate
Wed 12:51:20 AM -33.1971 151.0760 32° Northeast 5,000  Level Aus ATC (Calculated)
Wed 12:53:00 AM -33.1664 151.0989 32° Northeast  Level FlightAware Approximate
Wed 12:53:02 AM -33.1547 151.1077 360° North 5,000  Level Aus ATC (Calculated)
Wed 12:54:01 AM -33.1547 151.1077 32° Northeast 5,000  Level Aus ATC (Calculated)
Wed 12:56:00 AM -33.1218 151.1321 32° Northeast  Level FlightAware Approximate
Wed 12:57:00 AM -33.1053 151.1445 32° Northeast  Level FlightAware Approximate
Wed 12:58:00 AM -33.1218 151.1321 212° Southwest  Level FlightAware Approximate
Wed 12:58:43 AM -33.2263 151.3518 303° West 5,000  Level Aus ATC (Calculated)
Wed 01:00:00 AM -33.2113 151.3238 303° West  Level FlightAware Approximate
Wed 01:01:00 AM -33.1996 151.3020 303° West  Level FlightAware Approximate
Wed 01:01:38 AM -33.2500 151.4333 296° West 2,500  Level Aus ATC (Calculated)
Wed 01:02:00 AM -33.1879 151.2802 303° West  Level FlightAware Approximate
Wed 01:03:00 AM -33.2355 151.4024 299° West  Level FlightAware Approximate
Wed 01:04:00 AM -33.2550 151.3908 119° Southeast  Level Estimated
Wed 01:05:00 AM -33.2520 151.4165 82° East  Level FlightAware Approximate
Wed 01:06:00 AM -33.2490 151.4422 82° East  Level FlightAware Approximate
Wed 01:07:00 AM -33.2519 151.4165 262° West  Level FlightAware Approximate
Wed 01:08:00 AM -33.2490 151.4422 82° East  Level FlightAware Approximate
Wed 01:09:00 AM -33.2519 151.4165 262° West  Level FlightAware Approximate
Wed 01:10:00 AM -33.2490 151.4422 82° East  Level FlightAware Approximate
Wed 01:11:00 AM -33.2519 151.4165 262° West  Level FlightAware Approximate
Wed 01:12:00 AM -33.2490 151.4422 82° East  Level FlightAware Approximate
Wed 01:13:00 AM -33.2519 151.4165 262° West  Level FlightAware Approximate
Wed 01:14:00 AM -33.2490 151.4422 82° East  Level FlightAware Approximate
Wed 01:14:17 AM -33.5408 151.1958 34° Northeast 2,200  Level Aus ATC (Calculated)
Wed 01:16:00 AM -33.5101 151.2210 34° Northeast  Level FlightAware Approximate
Wed 01:17:00 AM -33.4921 151.2357 34° Northeast  Level FlightAware Approximate
Wed 01:18:00 AM -33.5117 151.2245 214° Southwest  Level Estimated
Wed 01:19:00 AM -33.5285 151.2080 219° Southwest  Level FlightAware Approximate
Wed 01:20:00 AM -33.5452 151.1914 219° Southwest  Level FlightAware Approximate
Wed 01:21:00 AM -33.5285 151.2080 39° Northeast  Level FlightAware Approximate
Wed 01:22:00 AM -33.5452 151.1914 219° Southwest  Level FlightAware Approximate
Wed 01:23:00 AM -33.5285 151.2080 39° Northeast  Level FlightAware Approximate
Wed 01:24:00 AM -33.5452 151.1914 219° Southwest  Level FlightAware Approximate
Wed 01:25:00 AM -33.5285 151.2080 39° Northeast  Level FlightAware Approximate
Wed 01:26:00 AM -33.5452 151.1914 219° Southwest  Level FlightAware Approximate
Wed 01:26:59 AM -33.8167 150.9167 40° Northeast  Level Aus ATC (Calculated)
Wed 01:27:00 AM -33.5285 151.2080 39° Northeast  Level FlightAware Approximate
Wed 01:28:00 AM -33.7999 150.9338 40° Northeast  Level FlightAware Approximate
Wed 01:29:00 AM -33.7833 150.9506 40° Northeast  Level FlightAware Approximate
Wed 01:29:35 AM -33.8706 150.9525 209° Southwest  Level Aus ATC (Calculated)
Wed 01:29:35 AM -33.8706 150.9525 32° Northeast  Level Aus ATC (Calculated)
Wed 01:31:00 AM -33.8444 150.9719 32° Northeast  Level FlightAware Approximate
Wed 01:32:00 AM -33.8260 150.9856 32° Northeast  Level FlightAware Approximate
Wed 01:33:00 AM -33.8075 150.9992 32° Northeast  Level FlightAware Approximate
Wed 01:34:00 AM -33.8291 150.9972 220° Southwest  Level Estimated
Wed 01:35:00 AM -33.8252 150.9716 280° West  Level FlightAware Approximate
Wed 01:36:00 AM -33.8212 150.9459 281° West  Level FlightAware Approximate
Wed 01:37:00 AM -33.8172 150.9202 281° West  Level FlightAware Approximate

Login

Don't have an account? Register now (free) for customized features, flight alerts, and more!